createdAt,value
2022-12-08T00:02:32.826Z,1.99
2022-12-08T00:22:35.674Z,2.46
2022-12-08T00:42:38.082Z,2.54
2022-12-08T01:02:41.144Z,2.92
2022-12-08T01:22:43.689Z,3.17
2022-12-08T01:42:46.094Z,3.12
2022-12-08T02:02:48.667Z,3.21
2022-12-08T02:22:51.225Z,3.07
2022-12-08T02:42:53.596Z,2.95
2022-12-08T03:02:56.201Z,2.99
2022-12-08T03:22:58.851Z,2.67
2022-12-08T03:43:01.240Z,2.75
2022-12-08T04:03:06.211Z,2.70
2022-12-08T04:23:08.705Z,2.76
2022-12-08T04:43:11.438Z,2.75
2022-12-08T05:03:13.853Z,2.38
2022-12-08T05:23:16.320Z,1.74
2022-12-08T05:43:18.828Z,1.42
2022-12-08T07:04:35.605Z,2.25
2022-12-08T07:24:38.399Z,2.90
2022-12-08T07:44:41.041Z,2.61
2022-12-08T08:04:43.514Z,2.76
2022-12-08T08:24:46.236Z,2.88
2022-12-08T08:44:48.954Z,3.11
2022-12-08T09:04:51.587Z,4.02
2022-12-08T09:24:55.269Z,4.48
2022-12-08T09:44:58.495Z,4.65
2022-12-08T10:05:01.021Z,5.39
2022-12-08T10:25:03.849Z,6.10
2022-12-08T10:45:06.267Z,6.18
2022-12-08T11:05:08.864Z,6.63
2022-12-08T11:25:14.508Z,5.95
2022-12-08T11:45:17.144Z,6.11
2022-12-08T12:05:33.158Z,6.22
2022-12-08T12:25:42.209Z,6.15
2022-12-08T12:45:46.876Z,6.25
2022-12-08T13:05:49.329Z,6.01
2022-12-08T13:25:52.528Z,5.52
2022-12-08T14:06:17.697Z,4.84
2022-12-08T14:26:20.419Z,4.38
2022-12-08T14:46:24.069Z,4.36
2022-12-08T15:06:26.515Z,4.47
2022-12-08T15:26:29.332Z,4.43
2022-12-08T17:27:57.482Z,3.60
2022-12-08T17:48:00.201Z,3.57
2022-12-08T18:08:04.606Z,3.55
2022-12-08T18:28:07.026Z,3.65
2022-12-08T18:48:09.831Z,3.57
2022-12-08T19:08:12.580Z,3.58
2022-12-08T19:28:15.491Z,3.68
2022-12-08T19:48:17.913Z,3.74
2022-12-08T20:08:20.668Z,3.66
2022-12-08T20:28:23.701Z,3.75
2022-12-08T20:48:26.240Z,3.73
2022-12-08T21:08:29.001Z,3.82
2022-12-08T21:28:31.549Z,3.52
2022-12-08T21:48:34.497Z,3.77
2022-12-08T22:08:37.329Z,3.52
2022-12-08T22:28:39.928Z,3.50
2022-12-08T22:48:42.843Z,3.60
2022-12-08T23:08:45.834Z,3.66
2022-12-08T23:49:26.385Z,3.77
